Farnborough, United Kingdom

8:03 AM BST on July 27, 2016 (GMT +0100)
Farnborough | | Change Station

Elev 213 ft 51.28 °N, 0.77 °W | Updated 13 minutes ago

Light Rain
Light Rain
63 °F
Feels Like 63 °F
N
15
Wind Variable Wind from WSW

Today
High -- | Low -- °F
--% Chance of Precip.
Yesterday
High -- | Low -- °F
Precip. -- in
Pressure 29.98 in
Visibility 3.1 miles
Clouds Mostly Cloudy 1300 ft
Dew Point 59 °F
Humidity 88%
Rainfall 0.00 in
Snow Depth Not available.
5:20 AM 8:57 PM
Last Quarter, 46% visible
METAR EGLF 270650Z 24013KT 5000 -RA BKN013 17/15 Q1015
Pressure 29.98 in
Visibility 3.1 miles
Clouds Mostly Cloudy 1300 ft
Dew Point 59 °F
Humidity 88%
Rainfall 0.00 in
Snow Depth Not available.
5:20 AM 8:57 PM
Last Quarter, 46% visible
METAR EGLF 270650Z 24013KT 5000 -RA BKN013 17/15 Q1015

10-Day Weather Forecast

×

Almanac

Astronomy

Jul. 27, 2016 Rise Set
Actual Time
Civil Twilight
Nautical Twilight
Astronomical Twilight
Moon
Length of Visible Light
Length of Day
Tomorrow will be .
, % of the Moon is Illuminated

Today's Extremes

Country Highs Country Lows

Community

WunderPhotos

Upload Photos

1,927,818 photos uploaded!

WunderBlog® & News

Nearby

Air Quality

  Air Quality AQ Index Pollutant
Not available.

Snow Depth

Station Depth Elevation

Earthquake Activity

City Distance Mag. Time & Date
Minimum magnitude displayed is 2.5.

Coastal Water Temperatures

Place Temperature

Stations

Nearby Weather Stations

Station Location Temp. Windchill Dew Point Humidity Wind Precip. Elev Updated Type